This is the latest recevied weather packets stored in our database for station/object DG3RAP-11. If no packets are shown the sender has not sent any weather packets the latest 10 day(s).
| Time | Temp. | Humidity | Pressure | Rain* | Wind** | Luminosity | Snow |
|---|---|---|---|---|---|---|---|
| 1777945503 | 15.56° C | 63% | 1009 hPa | 0 mm | - | - | - |
| 1777944963 | 15.56° C | 63% | 1009.1 hPa | 0 mm | - | - | - |
| 1777944423 | 15.56° C | 64% | 1009.1 hPa | 0 mm | - | - | - |
| 1777943884 | 15.56° C | 65% | 1009.2 hPa | 0 mm | - | - | - |
| 1777943343 | 15.56° C | 65% | 1009 hPa | 0 mm | - | - | - |
| 1777942803 | 15.56° C | 67% | 1009.2 hPa | 0 mm | - | - | - |
| 1777942443 | 15.56° C | 67% | 1009.3 hPa | 0 mm | - | - | - |
| 1777941903 | 15.56° C | 66% | 1009.6 hPa | 0 mm | - | - | - |
| 1777941363 | 15.56° C | 66% | 1009.9 hPa | 0 mm | - | - | - |
| 1777940823 | 15.56° C | 65% | 1009.8 hPa | 0 mm | - | - | - |
| 1777940283 | 16.11° C | 65% | 1009.8 hPa | 0 mm | - | - | - |
| 1777939743 | 16.11° C | 65% | 1009.9 hPa | 0 mm | - | - | - |
| 1777939203 | 16.11° C | 64% | 1010 hPa | 0 mm | - | - | - |
| 1777938843 | 16.67° C | 63% | 1010.2 hPa | 0 mm | - | - | - |
| 1777938303 | 17.22° C | 59% | 1010.5 hPa | 0 mm | - | - | - |
| 1777937763 | 17.22° C | 59% | 1010.6 hPa | 0 mm | - | - | - |
| 1777937223 | 17.22° C | 58% | 1010.8 hPa | 0 mm | - | - | - |
| 1777936683 | 17.78° C | 56% | 1010.9 hPa | 0 mm | - | - | - |
| 1777936143 | 17.22° C | 57% | 1011 hPa | 0 mm | - | - | - |
| 1777935603 | 17.22° C | 58% | 1010.9 hPa | 0 mm | - | - | - |
| 1777935243 | 16.67° C | 59% | 1011.1 hPa | 0 mm | - | - | - |
| 1777934703 | 16.67° C | 60% | 1011 hPa | 0 mm | - | - | - |
| 1777934163 | 17.22° C | 59% | 1010.6 hPa | 0 mm | - | - | - |
| 1777933623 | 17.22° C | 56% | 1010.5 hPa | 0 mm | - | - | - |
| 1777933083 | 17.22° C | 55% | 1010.6 hPa | 0 mm | - | - | - |
* Rain latest hour (hover to see other rain measurements)
** Current wind speed in m/s (hover to see current wind gust speed)